Time;durP1;ratioP1;P1;durP2;ratioP2;P2;SDS_P1;SDS_P2;PMS_P1;PMS_P2;Temp;Humidity;BMP_temperature;BMP_pressure;BME280_temperature;BME280_humidity;BME280_pressure;Samples;Min_cycle;Max_cycle;Signal;HPM_P1;HPM_P2
2022/08/30 00:01:01;;;;;;;;;;;;;;;-142.75;100.00;77158.91;5036232;28;20059;-67
2022/08/30 00:01:53;;;;;;;;;;;;;;;-142.75;100.00;77162.84;5036728;28;20314;-67
2022/08/30 00:04:19;;;;;;;;;;;;;;;-142.75;100.00;77184.50;5036645;28;19920;-67
2022/08/30 00:06:44;;;;;;;;;;;;;;;-142.75;100.00;77180.56;5035993;28;19917;-67
2022/08/30 00:09:10;;;;;;;;;;;;;;;-142.75;100.00;77168.75;5018379;28;19967;-67
2022/08/30 00:11:36;;;;;;;;;;;;;;;-142.75;100.00;77168.75;5018773;28;19954;-67
2022/08/30 00:14:01;;;;;;;;;;;;;;;-142.75;100.00;77172.69;5036517;28;19920;-67
2022/08/30 00:16:26;;;;;;;;;;;;;;;-142.75;100.00;77180.56;5035941;28;19924;-67
2022/08/30 00:18:51;;;;;;;;;;;;;;;-142.75;100.00;77176.63;5036220;28;19917;-67
2022/08/30 00:21:17;;;;;;;;;;;;;;;-142.75;100.00;77180.56;5014363;28;20377;-67
2022/08/30 00:23:42;;;;;;;;;;;;;;;-142.75;100.00;77186.47;5016212;28;19963;-68
2022/08/30 00:26:07;;;;;;;;;;;;;;;-142.75;100.00;77184.50;5016178;28;19914;-67
2022/08/30 00:28:33;;;;;;;;;;;;;;;-142.75;100.00;77190.41;5015660;28;20021;-67
2022/08/30 00:31:00;;;;;;;;;;;;;;;-142.75;100.00;77184.50;5015829;28;20554;-67
2022/08/30 00:33:26;;;;;;;;;;;;;;;-142.75;100.00;77180.56;5015823;28;20517;-67
2022/08/30 00:35:51;;;;;;;;;;;;;;;-142.75;100.00;77178.59;5016116;28;19992;-67
2022/08/30 00:38:16;;;;;;;;;;;;;;;-142.75;100.00;77186.47;5017274;28;20002;-67
2022/08/30 00:40:43;;;;;;;;;;;;;;;-142.75;100.00;77182.53;5017161;28;19956;-67
2022/08/30 00:43:11;;;;;;;;;;;;;;;-142.75;100.00;77180.56;5016881;28;19967;-67
2022/08/30 00:45:37;;;;;;;;;;;;;;;-142.75;100.00;77180.56;5015761;28;19921;-67
2022/08/30 00:48:03;;;;;;;;;;;;;;;-142.75;100.00;77184.50;5017067;28;19928;-67
2022/08/30 00:50:34;;;;;;;;;;;;;;;-142.75;100.00;77190.41;5016676;28;19965;-67
2022/08/30 00:53:00;;;;;;;;;;;;;;;-142.75;100.00;77196.31;5016650;28;20310;-67
2022/08/30 00:55:26;;;;;;;;;;;;;;;-142.75;100.00;77192.38;5016138;28;20008;-67
2022/08/30 00:57:54;;;;;;;;;;;;;;;-142.75;100.00;77196.31;5016838;28;19983;-67
2022/08/30 01:00:20;;;;;;;;;;;;;;;-142.75;100.00;77208.13;5016720;28;20372;-67
2022/08/30 01:02:45;;;;;;;;;;;;;;;-142.75;100.00;77200.25;5016625;28;19925;-68
2022/08/30 01:05:10;;;;;;;;;;;;;;;-142.75;100.00;77204.19;5016310;28;20535;-67
2022/08/30 01:07:39;;;;;;;;;;;;;;;-142.75;100.00;77214.03;5014806;28;19917;-67
2022/08/30 01:10:05;;;;;;;;;;;;;;;-142.75;100.00;77208.13;5016660;28;19914;-67
2022/08/30 01:12:31;;;;;;;;;;;;;;;-142.75;100.00;77210.09;5016157;28;19921;-67
2022/08/30 01:14:57;;;;;;;;;;;;;;;-142.75;100.00;77200.25;4999508;28;19913;-68
2022/08/30 01:17:23;;;;;;;;;;;;;;;-142.75;100.00;77208.13;5016204;28;19913;-68
2022/08/30 01:19:57;;;;;;;;;;;;;;;-142.75;100.00;77216.00;5016325;28;19929;-67
2022/08/30 01:22:25;;;;;;;;;;;;;;;-142.75;100.00;77206.16;5016208;28;20383;-67
2022/08/30 01:24:52;;;;;;;;;;;;;;;-142.75;100.00;77202.22;5016507;28;19913;-67
2022/08/30 01:27:18;;;;;;;;;;;;;;;-142.75;100.00;77206.16;5015778;28;19913;-67
2022/08/30 01:29:43;;;;;;;;;;;;;;;-142.75;100.00;77200.25;5016177;28;19920;-67
2022/08/30 01:32:14;;;;;;;;;;;;;;;-142.75;100.00;77210.09;5016394;28;20396;-67
2022/08/30 01:34:40;;;;;;;;;;;;;;;-142.75;100.00;77210.09;5016168;28;19913;-68
2022/08/30 01:37:05;;;;;;;;;;;;;;;-142.75;100.00;77206.16;5015874;28;19920;-67
2022/08/30 01:39:30;;;;;;;;;;;;;;;-142.75;100.00;77202.22;5040609;22;19932;-65
2022/08/30 01:41:55;;;;;;;;;;;;;;;-142.75;100.00;77194.34;5051012;28;19931;-66
2022/08/30 01:44:21;;;;;;;;;;;;;;;-142.75;100.00;77194.34;5052159;28;19956;-68
2022/08/30 01:46:46;;;;;;;;;;;;;;;-142.75;100.00;77188.44;5053000;28;20361;-68
2022/08/30 01:49:14;;;;;;;;;;;;;;;-142.75;100.00;77186.47;5053283;28;19913;-67
2022/08/30 01:51:39;;;;;;;;;;;;;;;-142.75;100.00;77184.50;5053106;28;19928;-67
2022/08/30 01:54:04;;;;;;;;;;;;;;;-142.75;100.00;77174.66;5053097;28;19917;-67
2022/08/30 01:56:30;;;;;;;;;;;;;;;-142.75;100.00;77180.56;5052959;28;19920;-68
2022/08/30 01:58:56;;;;;;;;;;;;;;;-142.75;100.00;77176.63;5052788;28;20374;-67
2022/08/30 02:01:23;;;;;;;;;;;;;;;-142.75;100.00;77180.56;5052956;28;19912;-67
2022/08/30 02:03:48;;;;;;;;;;;;;;;-142.75;100.00;77186.47;5052944;28;19917;-68
2022/08/30 02:06:15;;;;;;;;;;;;;;;-142.75;100.00;77180.56;5052575;28;19912;-67
2022/08/30 02:08:41;;;;;;;;;;;;;;;-142.75;100.00;77168.75;5052561;28;19912;-67
2022/08/30 02:11:06;;;;;;;;;;;;;;;-142.75;100.00;77176.63;5051721;28;19966;-67
2022/08/30 02:13:32;;;;;;;;;;;;;;;-142.75;100.00;77188.44;5052701;28;19983;-68
2022/08/30 02:15:57;;;;;;;;;;;;;;;-142.75;100.00;77184.50;5052725;28;20046;-68
2022/08/30 02:18:23;;;;;;;;;;;;;;;-142.75;100.00;77180.56;5052321;28;19932;-68
2022/08/30 02:20:48;;;;;;;;;;;;;;;-142.75;100.00;77184.50;5052592;28;19920;-68
2022/08/30 02:23:14;;;;;;;;;;;;;;;-142.75;100.00;77188.44;5051221;28;19913;-68
2022/08/30 02:25:40;;;;;;;;;;;;;;;-142.75;100.00;77180.56;5052523;28;20001;-68
2022/08/30 02:28:05;;;;;;;;;;;;;;;-142.75;100.00;77188.44;5052469;28;20289;-68
2022/08/30 02:30:30;;;;;;;;;;;;;;;-142.75;100.00;77192.38;5052420;28;19912;-68
2022/08/30 02:32:56;;;;;;;;;;;;;;;-142.75;100.00;77196.31;5052442;28;19913;-68
2022/08/30 02:35:21;;;;;;;;;;;;;;;-142.75;100.00;77192.38;5052404;28;19920;-68
2022/08/30 02:37:46;;;;;;;;;;;;;;;-142.75;100.00;77196.31;5050824;28;19913;-67
2022/08/30 02:40:12;;;;;;;;;;;;;;;-142.75;100.00;77196.31;5052016;28;19920;-67
2022/08/30 02:42:37;;;;;;;;;;;;;;;-142.75;100.00;77208.13;5051010;28;19960;-67
2022/08/30 02:45:03;;;;;;;;;;;;;;;-142.75;100.00;77200.25;5052289;28;19917;-68
2022/08/30 02:47:29;;;;;;;;;;;;;;;-142.75;100.00;77214.03;5051900;28;19913;-68
2022/08/30 02:49:54;;;;;;;;;;;;;;;-142.75;100.00;77216.00;5052170;28;19958;-68
2022/08/30 02:52:19;;;;;;;;;;;;;;;-142.75;100.00;77219.94;5050880;28;19917;-68
2022/08/30 02:54:45;;;;;;;;;;;;;;;-142.75;100.00;77223.88;5052211;28;19917;-68
2022/08/30 02:57:12;;;;;;;;;;;;;;;-142.75;100.00;77225.84;5051877;28;20524;-68
2022/08/30 02:59:42;;;;;;;;;;;;;;;-142.75;100.00;77223.88;5052041;28;19932;-68
2022/08/30 03:02:08;;;;;;;;;;;;;;;-142.75;100.00;77219.94;5050822;28;19913;-68
2022/08/30 03:04:33;;;;;;;;;;;;;;;-142.75;100.00;77216.00;5052093;28;19923;-68
2022/08/30 03:06:58;;;;;;;;;;;;;;;-142.75;100.00;77212.06;5051700;28;19913;-68
2022/08/30 03:09:23;;;;;;;;;;;;;;;-142.75;100.00;77216.00;5051944;28;19913;-67
2022/08/30 03:11:48;;;;;;;;;;;;;;;-142.75;100.00;77208.13;5050674;28;20333;-67
2022/08/30 03:14:14;;;;;;;;;;;;;;;-142.75;100.00;77212.06;5050754;28;20341;-67
2022/08/30 03:16:39;;;;;;;;;;;;;;;-142.75;100.00;77212.06;5051830;28;19958;-68
2022/08/30 03:19:04;;;;;;;;;;;;;;;-142.75;100.00;77214.03;5055957;28;19917;-68
2022/08/30 03:21:29;;;;;;;;;;;;;;;-142.75;100.00;77212.06;5055878;28;20386;-67
2022/08/30 03:23:54;;;;;;;;;;;;;;;-142.75;100.00;77219.94;5055953;28;19970;-68
2022/08/30 03:26:20;;;;;;;;;;;;;;;-142.75;100.00;77231.75;5055841;28;19912;-68
2022/08/30 03:28:45;;;;;;;;;;;;;;;-142.75;100.00;77219.94;5055632;28;19913;-66
2022/08/30 03:31:11;;;;;;;;;;;;;;;-142.75;100.00;77221.91;5055781;28;19938;-68
2022/08/30 03:33:38;;;;;;;;;;;;;;;-142.75;100.00;77227.81;5055802;28;19913;-68
2022/08/30 03:36:04;;;;;;;;;;;;;;;-142.75;100.00;77219.94;5055681;28;19923;-68
2022/08/30 03:38:29;;;;;;;;;;;;;;;-142.75;100.00;77223.88;5055295;28;19917;-67
2022/08/30 03:40:55;;;;;;;;;;;;;;;-142.75;100.00;77223.88;5055432;28;19927;-68
2022/08/30 03:43:20;;;;;;;;;;;;;;;-142.75;100.00;77219.94;5055652;28;19912;-67
2022/08/30 03:45:45;;;;;;;;;;;;;;;-142.75;100.00;77214.03;5055600;28;19913;-67
2022/08/30 03:48:10;;;;;;;;;;;;;;;-142.75;100.00;77212.06;5055199;28;20461;-68
2022/08/30 03:50:36;;;;;;;;;;;;;;;-142.75;100.00;77210.09;5055346;28;19926;-68
2022/08/30 03:53:01;;;;;;;;;;;;;;;-142.75;100.00;77210.09;5055537;28;19912;-67
2022/08/30 03:55:27;;;;;;;;;;;;;;;-142.75;100.00;77214.03;5055380;28;20043;-68
2022/08/30 03:57:52;;;;;;;;;;;;;;;-142.75;100.00;77204.19;5055057;28;19913;-68
2022/08/30 04:00:18;;;;;;;;;;;;;;;-142.75;100.00;77204.19;5055232;28;19917;-67
2022/08/30 04:02:43;;;;;;;;;;;;;;;-142.75;100.00;77210.09;5055351;28;19916;-67
2022/08/30 04:05:09;;;;;;;;;;;;;;;-142.75;100.00;77208.13;5055201;28;19917;-68
2022/08/30 04:07:35;;;;;;;;;;;;;;;-142.75;100.00;77212.06;5054777;28;19920;-68
2022/08/30 04:10:00;;;;;;;;;;;;;;;-142.75;100.00;77219.94;5055022;28;19912;-68
2022/08/30 04:12:25;;;;;;;;;;;;;;;-142.75;100.00;77216.00;5053825;28;20542;-68
2022/08/30 04:14:51;;;;;;;;;;;;;;;-142.75;100.00;77219.94;5055044;28;19944;-67
2022/08/30 04:17:16;;;;;;;;;;;;;;;-142.75;100.00;77216.00;5053437;28;20279;-68
2022/08/30 04:19:41;;;;;;;;;;;;;;;-142.75;100.00;77219.94;5054789;28;19959;-67
2022/08/30 04:22:06;;;;;;;;;;;;;;;-142.75;100.00;77214.03;5054787;28;19963;-68
2022/08/30 04:24:33;;;;;;;;;;;;;;;-142.75;100.00;77219.94;5054835;28;19971;-67
2022/08/30 04:26:58;;;;;;;;;;;;;;;-142.75;100.00;77223.88;5054542;28;19956;-67
2022/08/30 04:29:23;;;;;;;;;;;;;;;-142.75;100.00;77241.59;5054452;28;20374;-67
2022/08/30 04:31:48;;;;;;;;;;;;;;;-142.75;100.00;77243.56;5054685;28;20000;-68
2022/08/30 04:34:14;;;;;;;;;;;;;;;-142.75;100.00;77259.31;5053350;28;19913;-68
2022/08/30 04:36:39;;;;;;;;;;;;;;;-142.75;100.00;77263.25;5054266;28;19913;-68
2022/08/30 04:39:04;;;;;;;;;;;;;;;-142.75;100.00;77265.22;5054445;28;20294;-68
2022/08/30 04:41:30;;;;;;;;;;;;;;;-142.75;100.00;77275.06;5054393;28;20504;-68
2022/08/30 04:43:55;;;;;;;;;;;;;;;-142.75;100.00;77280.97;5054514;28;20332;-68
2022/08/30 04:46:20;;;;;;;;;;;;;;;-142.75;100.00;77279.00;5054439;28;19967;-68
2022/08/30 04:48:46;;;;;;;;;;;;;;;-142.75;100.00;77286.88;5054100;28;19916;-67
2022/08/30 04:51:13;;;;;;;;;;;;;;;-142.75;100.00;77282.94;5054188;28;19935;-68
2022/08/30 04:53:39;;;;;;;;;;;;;;;-142.75;100.00;77288.84;5053009;28;19913;-67
2022/08/30 04:56:08;;;;;;;;;;;;;;;-142.75;100.00;77280.97;5054191;28;19920;-67
2022/08/30 04:58:33;;;;;;;;;;;;;;;-142.75;100.00;77290.81;5053844;28;19925;-68
2022/08/30 05:00:58;;;;;;;;;;;;;;;-142.75;100.00;77288.84;5054132;28;20488;-67
2022/08/30 05:03:24;;;;;;;;;;;;;;;-142.75;100.00;77290.81;5054200;28;20424;-68
2022/08/30 05:05:49;;;;;;;;;;;;;;;-142.75;100.00;77280.97;5053993;28;19913;-67
2022/08/30 05:08:15;;;;;;;;;;;;;;;-142.75;100.00;77294.75;5053809;28;19917;-68
2022/08/30 05:10:42;;;;;;;;;;;;;;;-142.75;100.00;77286.88;5053939;28;19948;-67
2022/08/30 05:13:07;;;;;;;;;;;;;;;-142.75;100.00;77302.63;5052801;28;19978;-68
2022/08/30 05:15:33;;;;;;;;;;;;;;;-142.75;100.00;77290.81;5052684;28;19916;-67
2022/08/30 05:17:58;;;;;;;;;;;;;;;-142.75;100.00;77294.75;5053720;28;19959;-68
2022/08/30 05:20:24;;;;;;;;;;;;;;;-142.75;100.00;77290.81;5053635;28;20322;-67
2022/08/30 05:22:49;;;;;;;;;;;;;;;-142.75;100.00;77290.81;5053821;28;19913;-68
2022/08/30 05:25:18;;;;;;;;;;;;;;;-142.75;100.00;77284.91;5052486;28;20394;-68
2022/08/30 05:27:43;;;;;;;;;;;;;;;-142.75;100.00;77284.91;5053504;28;19917;-68
2022/08/30 05:30:09;;;;;;;;;;;;;;;-142.75;100.00;77273.09;5053598;28;19920;-67
2022/08/30 05:32:34;;;;;;;;;;;;;;;-142.75;100.00;77271.13;5053554;28;19912;-67
2022/08/30 05:34:59;;;;;;;;;;;;;;;-142.75;100.00;77255.38;5053480;28;19913;-68
2022/08/30 05:37:24;;;;;;;;;;;;;;;-142.75;100.00;77255.38;5053179;28;19913;-68
2022/08/30 05:39:50;;;;;;;;;;;;;;;-142.75;100.00;77251.44;5052429;28;19972;-68
2022/08/30 05:42:15;;;;;;;;;;;;;;;-142.75;100.00;77241.59;5053435;28;19913;-68
2022/08/30 05:44:40;;;;;;;;;;;;;;;-142.75;100.00;77243.56;5053332;28;20337;-67
2022/08/30 05:47:05;;;;;;;;;;;;;;;-142.75;100.00;77249.47;5051721;28;20003;-69
2022/08/30 05:49:31;;;;;;;;;;;;;;;-142.75;100.00;77247.50;5053128;28;19913;-67
2022/08/30 05:51:56;;;;;;;;;;;;;;;-142.75;100.00;77245.53;5053229;28;20007;-68
2022/08/30 05:54:21;;;;;;;;;;;;;;;-142.75;100.00;77235.69;5053102;28;19913;-68
2022/08/30 05:56:46;;;;;;;;;;;;;;;-142.75;100.00;77233.72;5052815;28;19939;-68
2022/08/30 05:59:12;;;;;;;;;;;;;;;-142.75;100.00;77239.63;5052969;28;19917;-68
2022/08/30 06:01:39;;;;;;;;;;;;;;;-142.75;100.00;77229.78;5052935;28;19966;-68
2022/08/30 06:04:05;;;;;;;;;;;;;;;-142.75;100.00;77202.22;5052888;28;19913;-68
2022/08/30 06:06:33;;;;;;;;;;;;;;;-142.75;100.00;77174.66;5051547;28;19913;-67
2022/08/30 06:08:59;;;;;;;;;;;;;;;-142.75;100.00;77176.63;5052991;28;19920;-68
2022/08/30 06:11:25;;;;;;;;;;;;;;;-142.75;100.00;77156.94;5052764;28;19913;-68
2022/08/30 06:13:51;;;;;;;;;;;;;;;-142.75;100.00;77143.16;5052820;28;20341;-68
2022/08/30 06:16:17;;;;;;;;;;;;;;;-142.75;100.00;77137.25;5052693;28;19913;-68
2022/08/30 06:18:42;;;;;;;;;;;;;;;-142.75;100.00;77109.69;5052446;28;19924;-68
2022/08/30 06:21:07;;;;;;;;;;;;;;;-142.75;100.00;77107.72;5052602;28;19912;-67
2022/08/30 06:23:33;;;;;;;;;;;;;;;-142.75;100.00;77115.59;5052646;28;19956;-68
2022/08/30 06:26:06;;;;;;;;;;;;;;;-142.75;100.00;77113.63;5052595;28;20325;-68
2022/08/30 06:28:31;;;;;;;;;;;;;;;-142.75;100.00;77095.91;5052306;28;20421;-68
2022/08/30 06:30:57;;;;;;;;;;;;;;;-142.75;100.00;77105.75;5052430;28;20027;-68
2022/08/30 06:33:22;;;;;;;;;;;;;;;-142.75;100.00;77080.16;5052143;28;19913;-68
2022/08/30 06:35:47;;;;;;;;;;;;;;;-142.75;100.00;77062.44;5052520;28;19952;-67
2022/08/30 06:38:12;;;;;;;;;;;;;;;-142.75;100.00;77070.31;5050773;28;19956;-68
2022/08/30 06:40:38;;;;;;;;;;;;;;;-142.75;100.00;77046.69;5052067;28;20302;-66
2022/08/30 06:43:03;;;;;;;;;;;;;;;-142.75;100.00;77011.25;5052302;28;19917;-68
2022/08/30 06:45:29;;;;;;;;;;;;;;;-142.75;100.00;76993.53;5052352;28;19939;-68
2022/08/30 06:47:55;;;;;;;;;;;;;;;-142.75;100.00;76989.59;5050629;28;20279;-68
2022/08/30 06:50:20;;;;;;;;;;;;;;;-142.75;100.00;76958.09;5050866;28;19919;-68
2022/08/30 06:52:45;;;;;;;;;;;;;;;-142.75;100.00;76932.50;5052167;28;19924;-68
2022/08/30 06:55:11;;;;;;;;;;;;;;;-142.75;100.00;76938.41;5052109;28;19959;-68
2022/08/30 06:57:37;;;;;;;;;;;;;;;-142.75;100.00;76918.72;5051873;28;19912;-68
2022/08/30 07:00:03;;;;;;;;;;;;;;;-142.75;100.00;76926.59;5051975;28;19917;-68
2022/08/30 07:02:29;;;;;;;;;;;;;;;-142.75;100.00;76899.03;5051956;28;20294;-68
2022/08/30 07:04:54;;;;;;;;;;;;;;;-142.75;100.00;76865.56;5052130;28;19921;-68
2022/08/30 07:07:19;;;;;;;;;;;;;;;-142.75;100.00;76851.78;5051580;28;20438;-69
2022/08/30 07:09:45;;;;;;;;;;;;;;;-142.75;100.00;76845.88;5051989;28;19913;-68
2022/08/30 07:12:11;;;;;;;;;;;;;;;-142.75;100.00;76822.25;5050757;28;19913;-68
2022/08/30 07:14:36;;;;;;;;;;;;;;;-142.75;100.00;76855.72;5050772;28;19913;-68
2022/08/30 07:18:49;;;;;;;;;;;;;;;-142.75;100.00;76845.88;5051692;28;20367;-68
2022/08/30 07:19:48;;;;;;;;;;;;;;;-142.75;100.00;76806.50;5051672;28;20609;-68
2022/08/30 07:22:13;;;;;;;;;;;;;;;-142.75;100.00;76761.25;5051936;28;19917;-68
2022/08/30 07:24:39;;;;;;;;;;;;;;;-142.75;100.00;76747.47;5051990;28;19913;-68
2022/08/30 07:27:04;;;;;;;;;;;;;;;-142.75;100.00;76731.72;5055793;28;19963;-67
2022/08/30 07:29:29;;;;;;;;;;;;;;;-142.75;100.00;76702.19;5072351;28;19916;-67
2022/08/30 07:31:54;;;;;;;;;;;;;;;-142.75;100.00;76688.41;5072414;28;19938;-68
2022/08/30 07:34:20;;;;;;;;;;;;;;;-142.75;100.00;76680.53;5071897;28;19920;-68
2022/08/30 07:36:45;;;;;;;;;;;;;;;-142.75;100.00;76645.09;5070025;28;19919;-68
2022/08/30 07:39:11;;;;;;;;;;;;;;;-142.75;100.00;76621.47;5071736;28;20297;-69
2022/08/30 07:41:37;;;;;;;;;;;;;;;-142.75;100.00;76595.88;5082318;22;20408;-67
2022/08/30 07:44:02;;;;;;;;;;;;;;;-142.75;100.00;76609.66;5062309;28;19920;-67
2022/08/30 07:46:28;;;;;;;;;;;;;;;-142.75;100.00;76586.03;5060515;28;19927;-67
2022/08/30 07:48:54;;;;;;;;;;;;;;;-142.75;100.00;76562.41;5065012;28;19912;-68
2022/08/30 07:51:20;;;;;;;;;;;;;;;-142.75;100.00;76527.00;5060084;28;19928;-67
2022/08/30 07:53:46;;;;;;;;;;;;;;;-142.75;100.00;76507.31;5038583;28;19913;-66
2022/08/30 07:56:11;;;;;;;;;;;;;;;-142.75;100.00;76493.53;5039981;28;19970;-67
2022/08/30 07:58:38;;;;;;;;;;;;;;;-142.75;100.00;76467.94;5041957;28;19919;-67
2022/08/30 08:01:05;;;;;;;;;;;;;;;-142.75;100.00;76467.94;5039397;28;19913;-68
2022/08/30 08:03:30;;;;;;;;;;;;;;;-142.75;100.00;76503.38;5048984;28;19920;-67
2022/08/30 08:05:56;;;;;;;;;;;;;;;-142.75;100.00;76479.75;5050825;28;20004;-67
2022/08/30 08:08:21;;;;;;;;;;;;;;;-142.75;100.00;76458.09;5040473;28;19992;-66
2022/08/30 08:10:47;;;;;;;;;;;;;;;-142.75;100.00;76456.13;5041560;28;19917;-65
2022/08/30 08:13:12;;;;;;;;;;;;;;;-142.75;100.00;76436.44;5051983;28;19917;-67
2022/08/30 08:15:37;;;;;;;;;;;;;;;-142.75;100.00;76438.41;5047107;28;19952;-66
2022/08/30 08:18:03;;;;;;;;;;;;;;;-142.75;100.00;76487.63;5041153;28;19917;-66
2022/08/30 08:20:29;;;;;;;;;;;;;;;-142.75;100.00;76438.41;5048327;28;19920;-66
2022/08/30 08:22:54;;;;;;;;;;;;;;;-142.75;100.00;76432.50;5035397;28;20007;-65
2022/08/30 08:25:19;;;;;;;;;;;;;;;-142.75;100.00;76440.38;5047913;28;19921;-66
2022/08/30 08:27:49;;;;;;;;;;;;;;;-142.75;100.00;76448.25;5042938;28;20347;-66
2022/08/30 08:30:15;;;;;;;;;;;;;;;-142.75;100.00;76385.25;5046068;28;19913;-67
2022/08/30 08:32:40;;;;;;;;;;;;;;;-142.75;100.00;76422.66;5041536;28;19913;-65
2022/08/30 08:35:05;;;;;;;;;;;;;;;-142.75;100.00;76377.38;5042760;28;19913;-66
2022/08/30 08:37:30;;;;;;;;;;;;;;;-142.75;100.00;76345.91;5045651;28;20390;-66
2022/08/30 08:39:56;;;;;;;;;;;;;;;-142.75;100.00;76320.31;5023335;28;19921;-66
2022/08/30 08:42:21;;;;;;;;;;;;;;;-142.75;100.00;76365.56;5038717;28;19924;-68
2022/08/30 08:44:55;;;;;;;;;;;;;;;-142.75;100.00;76340.00;5035920;28;19917;-66
2022/08/30 08:47:23;;;;;;;;;;;;;;;-142.75;100.00;76296.69;5027519;28;19916;-66
2022/08/30 08:49:50;;;;;;;;;;;;;;;-142.75;100.00;76302.59;5043006;28;20414;-66
2022/08/30 08:55:25;;;;;;;;;;;;;;;-142.75;100.00;76282.91;5042303;28;19956;-66
2022/08/30 08:57:51;;;;;;;;;;;;;;;-142.75;100.00;76255.34;5041753;28;20354;-66
2022/08/30 09:00:16;;;;;;;;;;;;;;;-142.75;100.00;76247.47;5040258;28;19994;-66
2022/08/30 09:02:46;;;;;;;;;;;;;;;-142.75;100.00;76253.38;5035582;28;19916;-65
2022/08/30 09:05:13;;;;;;;;;;;;;;;-142.75;100.00;76208.09;5057207;28;19963;-66
2022/08/30 09:07:41;;;;;;;;;;;;;;;-142.75;100.00;76227.78;5055803;28;19913;-67
2022/08/30 09:10:06;;;;;;;;;;;;;;;-142.75;100.00;76235.66;5037505;28;19916;-66
2022/08/30 09:12:31;;;;;;;;;;;;;;;-142.75;100.00;76180.56;5036730;28;19966;-66
2022/08/30 09:15:19;;;;;;;;;;;;;;;-142.75;97.84;76149.06;5057633;28;20301;-66
2022/08/30 09:17:50;;;;;;;;;;;;;;;-142.75;97.10;76119.53;5050441;28;19960;-66
2022/08/30 09:20:22;;;;;;;;;;;;;;;-142.75;93.99;76103.78;5057966;28;20382;-66
2022/08/30 09:22:48;;;;;;;;;;;;;;;-142.75;95.09;76135.28;5056664;28;19952;-66
2022/08/30 09:25:23;;;;;;;;;;;;;;;-142.75;92.53;76180.56;5057331;28;20378;-65
2022/08/30 09:27:49;;;;;;;;;;;;;;;-142.75;95.22;76141.19;5058076;28;19951;-65
2022/08/30 09:30:25;;;;;;;;;;;;;;;-142.75;89.63;76117.56;5057378;28;19912;-65
2022/08/30 09:32:52;;;;;;;;;;;;;;;-142.75;87.71;76115.59;5057845;28;20295;-66
2022/08/30 09:35:22;;;;;;;;;;;;;;;-142.75;88.97;76168.75;5039899;28;20396;-66
2022/08/30 09:38:03;;;;;;;;;;;;;;;-142.75;90.11;76121.50;5056625;28;19999;-65
2022/08/30 09:40:37;;;;;;;;;;;;;;;-142.75;89.54;76101.81;5057369;28;19916;-65
2022/08/30 09:43:09;;;;;;;;;;;;;;;-142.75;86.59;76090.00;5055500;28;19921;-66
2022/08/30 09:45:37;;;;;;;;;;;;;;;-142.75;84.27;76107.72;5056263;28;19948;-67
2022/08/30 09:48:20;;;;;;;;;;;;;;;-142.75;83.68;76113.63;5056243;28;20422;-66
2022/08/30 09:50:47;;;;;;;;;;;;;;;-142.75;84.58;76107.72;5056040;28;20305;-67
2022/08/30 09:53:17;;;;;;;;;;;;;;;-142.75;80.93;76147.09;5056072;28;19948;-66
2022/08/30 09:55:52;;;;;;;;;;;;;;;-142.75;82.87;76164.81;5055962;28;19917;-66
2022/08/30 09:58:35;;;;;;;;;;;;;;;-142.75;82.03;76123.47;5055629;28;19913;-67
2022/08/30 10:01:08;;;;;;;;;;;;;;;-142.75;80.47;76111.66;5055554;28;19917;-66
2022/08/30 10:03:33;;;;;;;;;;;;;;;-142.75;82.96;76109.69;5056219;28;20393;-66
2022/08/30 10:06:28;;;;;;;;;;;;;;;-142.75;83.42;76097.88;5056214;28;19912;-67
2022/08/30 10:08:54;;;;;;;;;;;;;;;-142.75;80.83;76080.16;5042273;28;20004;-67
2022/08/30 10:11:34;;;;;;;;;;;;;;;-142.75;85.03;76062.47;5055503;28;19969;-66
2022/08/30 10:14:19;;;;;;;;;;;;;;;-142.75;82.32;76054.59;5056166;28;19913;-67
2022/08/30 10:16:47;;;;;;;;;;;;;;;-142.75;83.23;76030.97;5044494;28;19920;-66
2022/08/30 10:19:40;;;;;;;;;;;;;;;-142.75;84.60;75991.59;5055345;28;19971;-66
2022/08/30 10:22:15;;;;;;;;;;;;;;;-142.75;80.00;76015.22;5055880;28;20392;-67
2022/08/30 10:24:43;;;;;;;;;;;;;;;-142.75;77.44;75969.94;5054974;28;20019;-67
2022/08/30 10:27:15;;;;;;;;;;;;;;;-142.75;73.65;75993.56;5054425;28;19919;-66
2022/08/30 10:30:04;;;;;;;;;;;;;;;-142.75;72.39;76046.72;5055505;28;19913;-67
2022/08/30 10:32:36;;;;;;;;;;;;;;;-142.75;71.30;76070.34;5048618;28;19920;-66
2022/08/30 10:35:10;;;;;;;;;;;;;;;-142.75;71.59;76003.41;5055946;28;19923;-66
2022/08/30 10:37:42;;;;;;;;;;;;;;;-142.75;69.32;76017.19;5054816;28;20382;-67
2022/08/30 10:43:08;;;;;;;;;;;;;;;-142.75;67.32;76003.41;5055583;28;19924;-67
2022/08/30 10:45:35;;;;;;;;;;;;;;;-142.75;67.84;75928.63;5037581;28;19913;-67
2022/08/30 10:48:18;;;;;;;;;;;;;;;-142.75;65.62;75971.91;5055738;28;19975;-67
2022/08/30 10:50:46;;;;;;;;;;;;;;;-142.75;66.28;75924.69;5055356;28;19921;-66
2022/08/30 10:53:14;;;;;;;;;;;;;;;-142.75;64.94;75934.53;5037157;28;20466;-66
2022/08/30 10:55:48;;;;;;;;;;;;;;;-142.75;63.90;75891.22;5054431;28;19920;-67
2022/08/30 10:58:14;;;;;;;;;;;;;;;-142.75;63.88;75865.63;5054400;28;19919;-67
2022/08/30 11:00:49;;;;;;;;;;;;;;;-142.75;62.96;75871.53;5054258;28;19916;-67
2022/08/30 11:03:18;;;;;;;;;;;;;;;-142.75;64.36;75842.03;5054579;28;20529;-67
2022/08/30 11:05:46;;;;;;;;;;;;;;;-142.75;62.02;75889.25;5054384;28;19920;-66
2022/08/30 11:08:20;;;;;;;;;;;;;;;-142.75;63.89;75853.84;5053707;28;19920;-66
2022/08/30 11:10:45;;;;;;;;;;;;;;;-142.75;64.20;75873.50;5054427;28;20007;-67
2022/08/30 11:13:12;;;;;;;;;;;;;;;-142.75;63.79;75987.66;5053967;28;19990;-66
2022/08/30 11:15:56;;;;;;;;;;;;;;;-142.75;63.91;75987.66;5054156;28;19920;-66
2022/08/30 11:18:22;;;;;;;;;;;;;;;-142.75;64.00;75975.84;5053699;28;19912;-66
2022/08/30 11:20:49;;;;;;;;;;;;;;;-142.75;64.07;75962.09;5053689;28;19917;-66
2022/08/30 11:23:18;;;;;;;;;;;;;;;-142.75;65.02;75895.16;5053646;28;20004;-66
2022/08/30 11:25:52;;;;;;;;;;;;;;;-142.75;64.14;75822.34;5053971;28;20000;-66
2022/08/30 11:28:35;;;;;;;;;;;;;;;-142.75;61.73;75905.00;5054017;28;19913;-66
2022/08/30 11:31:11;;;;;;;;;;;;;;;-142.75;61.64;75820.38;5035412;28;19919;-67
2022/08/30 11:33:46;;;;;;;;;;;;;;;-142.75;62.94;75836.13;5054000;28;19912;-67
2022/08/30 11:36:27;;;;;;;;;;;;;;;-142.75;61.56;75853.84;5035336;28;19920;-67
2022/08/30 11:38:52;;;;;;;;;;;;;;;-142.75;63.20;75806.59;5055607;28;19917;-66
2022/08/30 11:41:50;;;;;;;;;;;;;;;-142.75;62.78;75779.03;5039603;28;20366;-67
2022/08/30 11:44:21;;;;;;;;;;;;;;;-142.75;59.62;75838.09;5024020;28;19913;-67
2022/08/30 11:46:48;;;;;;;;;;;;;;;-142.75;59.44;75761.34;5039730;28;19975;-66
2022/08/30 11:49:13;;;;;;;;;;;;;;;-142.75;61.75;75767.22;5057936;28;19967;-67
2022/08/30 11:52:00;;;;;;;;;;;;;;;-142.75;61.07;75759.38;5059956;28;20302;-67
2022/08/30 11:54:44;;;;;;;;;;;;;;;-142.75;61.89;75741.66;5040950;28;19913;-67
2022/08/30 11:57:21;;;;;;;;;;;;;;;-142.75;59.29;75775.09;5057641;28;19920;-66
2022/08/30 11:59:46;;;;;;;;;;;;;;;-142.75;62.19;75775.09;5057401;28;19959;-67
2022/08/30 12:02:44;;;;;;;;;;;;;;;-142.75;61.53;75731.81;5057662;28;19916;-67
2022/08/30 12:05:29;;;;;;;;;;;;;;;-142.75;60.19;75779.03;5023753;28;19920;-66
2022/08/30 12:07:59;;;;;;;;;;;;;;;-142.75;62.06;75725.91;5057667;28;19913;-66
2022/08/30 12:10:44;;;;;;;;;;;;;;;-142.75;62.14;75782.97;5039452;28;19927;-67
2022/08/30 12:13:29;;;;;;;;;;;;;;;-142.75;64.06;75790.84;5057257;28;19963;-66
2022/08/30 12:15:59;;;;;;;;;;;;;;;-142.75;63.03;75849.91;5056501;28;19916;-66
2022/08/30 12:18:31;;;;;;;;;;;;;;;-142.75;63.08;75940.44;5038598;28;19913;-66
2022/08/30 12:21:00;;;;;;;;;;;;;;;-142.75;63.45;75964.03;5038873;28;20335;-66
2022/08/30 12:23:28;;;;;;;;;;;;;;;-142.75;64.57;76027.03;5057154;28;19913;-66
2022/08/30 12:26:30;;;;;;;;;;;;;;;-142.75;65.37;75983.72;5057118;28;19936;-67
2022/08/30 12:29:15;;;;;;;;;;;;;;;-142.75;64.34;75938.47;4995459;28;20459;-67